Nearby METAR Reports

 

KSJC - San Jose, California, USA
Distance from station: NE 9mi, 14km
Updated: Tue, 02-Mar-2021 9:53am CST
Mostly cloudy
Mostly cloudy
 Wind from SSE
Wind: SSE 6 mph , 9 km/h
Temperature: 46°F , 8°C
Wind Chill: 43°F , 6°C
Dew Point: 30°F , -1°C
Humidity: 53%
Barometer: 29.98 inHg , 1015.2 hPa
Clouds: Mostly cloudy
Visibility: 10 miles , 16 km
Cloud details: Partly cloudy 9000 ft
Mostly cloudy 11000 ft
Mostly cloudy 15000 ft
2021/03/02 15:53 KSJC 021553Z 15005KT 10SM SCT090 BKN110 BKN150 08/M01 A2998 RMK AO2 SLP153 T00781011
KNUQ - Moffett Nas/Mtn, California, USA
Distance from station: N 9mi, 14km
Updated: Tue, 02-Mar-2021 10:10am CST
Clear
Clear
 Wind from calm
Wind: Calm
Temperature: 46°F , 8°C
Dew Point: 32°F , 0°C
Humidity: 57%
Barometer: 29.99 inHg , 1015.6 hPa
Clouds: Clear
Visibility: 10 miles , 16 km
2021/03/02 16:10 KNUQ 021610Z AUTO 00000KT 10SM CLR 08/00 A2999 RMK AO2
 
KPAO - Palo Alto, California, USA
Distance from station: NNW 14mi, 23km
Updated: Tue, 02-Mar-2021 9:47am CST
Mostly cloudy
Mostly cloudy
 Wind from calm
Wind: Calm
Temperature: 43°F , 6°C
Dew Point: 34°F , 1°C
Humidity: 71%
Barometer: 29.99 inHg , 1015.6 hPa
Clouds: Mostly cloudy
Visibility: 10 miles , 16 km
Cloud details: Mostly cloudy 20000 ft
2021/03/02 15:47 KPAO 021547Z 00000KT 10SM BKN200 06/01 A2999
KRHV - San Jose/Reid, California, USA
Distance from station: ENE 12mi, 19km
Updated: Tue, 02-Mar-2021 9:55am CST
Mostly cloudy
Mostly cloudy
 Wind from calm
Wind: Calm
Temperature: 45°F , 7°C
Dew Point: 30°F , -1°C
Humidity: 57%
Barometer: 29.99 inHg , 1015.6 hPa
Clouds: Mostly cloudy
Visibility: 10 miles , 16 km
Cloud details: Mostly cloudy 10000 ft
2021/03/02 15:55 KRHV 021555Z 00000KT 10SM BKN100 07/M01 A2999
 
KOAK - Oakland, California, USA
Distance from station: NNW 31mi, 50km
Updated: Tue, 02-Mar-2021 9:53am CST
Mostly cloudy
Mostly cloudy
 Wind from SSE
Wind: SSE 8 mph , 13 km/h
Temperature: 52°F , 11°C
Dew Point: 37°F , 3°C
Humidity: 58%
Barometer: 29.99 inHg , 1015.6 hPa
Clouds: Mostly cloudy
Visibility: 10 miles , 16 km
Cloud details: Few Clouds 18000 ft
Mostly cloudy 25000 ft
2021/03/02 15:53 KOAK 021553Z 16007KT 10SM FEW180 BKN250 11/03 A2999 RMK AO2 SLP155 T01060028
KSQL - San Carlos Airpo, California, USA
Distance from station: NW 21mi, 34km
Updated: Tue, 02-Mar-2021 9:53am CST
Partly cloudy
Partly cloudy
 Wind from calm
Wind: Calm
Temperature: 45°F , 7°C
Dew Point: 32°F , 0°C
Humidity: 61%
Barometer: 29.99 inHg , 1015.6 hPa
Clouds: Partly cloudy
Visibility: 10 miles , 16 km
Cloud details: Partly cloudy 20000 ft
2021/03/02 15:53 KSQL 021553Z 00000KT 10SM SCT200 07/00 A2999
 
KSFO - San Francisco, California, USA
Distance from station: NW 30mi, 49km
Updated: Tue, 02-Mar-2021 9:56am CST
Mostly cloudy
Mostly cloudy
 Wind from calm
Wind: Calm
Temperature: 48°F , 9°C
Dew Point: 36°F , 2°C
Humidity: 62%
Barometer: 29.98 inHg , 1015.2 hPa
Clouds: Mostly cloudy
Visibility: 10 miles , 16 km
Cloud details: Mostly cloudy 20000 ft
2021/03/02 15:56 KSFO 021556Z 00000KT 10SM BKN200 09/02 A2998 RMK AO2 SLP150 T00890022
KE16 - San Martin, California, USA
Distance from station: ESE 27mi, 43km
Updated: Tue, 02-Mar-2021 9:55am CST
Clear
Clear
 Wind from SE
Wind: SE 5 mph , 7 km/h
Temperature: 39°F , 4°C
Wind Chill: 35°F , 2°C
Dew Point: 32°F , 0°C
Humidity: 75%
Barometer: 30.01 inHg , 1016.3 hPa
Clouds: Clear
Visibility: 10 miles , 16 km
2021/03/02 15:55 KE16 021555Z AUTO 13004KT 10SM CLR 04/00 A3001 RMK AO2
 
KWVI - Watsonville, California, USA
Distance from station: SSE 27mi, 44km
Updated: Tue, 02-Mar-2021 9:53am CST
Clear
Clear
 Wind from N
Wind: N 3 mph , 6 km/h
Temperature: 43°F , 6°C
Dew Point: 30°F , -1°C
Humidity: 61%
Barometer: 29.99 inHg , 1015.6 hPa
Clouds: Clear
Visibility: 10 miles , 16 km
2021/03/02 15:53 KWVI 021553Z AUTO 36003KT 10SM CLR 06/M01 A2999 RMK AO2 SLP155 T00611006
KHAF - Half Moon Bay, California, USA
Distance from station: WNW 31mi, 50km
Updated: Tue, 02-Mar-2021 10:15am CST
Clear
Clear
 Wind from calm
Wind: Calm
Temperature: 46°F , 8°C
Dew Point: 37°F , 3°C
Humidity: 71%
Barometer: 29.98 inHg , 1015.2 hPa
Clouds: Clear
Visibility: 8 miles , 13 km
2021/03/02 16:15 KHAF 021615Z AUTO 00000KT 8SM CLR 08/03 A2998 RMK AO2
 
KHWD - Hayward, California, USA
Distance from station: N 28mi, 44km
Updated: Tue, 02-Mar-2021 9:54am CST
Clear
Clear
 Wind from calm
Wind: Calm
Temperature: 46°F , 8°C
Dew Point: 32°F , 0°C
Humidity: 57%
Barometer: 29.98 inHg , 1015.2 hPa
Clouds: Clear
Visibility: 10 miles , 16 km
2021/03/02 15:54 KHWD 021554Z 00000KT 10SM CLR 08/00 A2998 RMK AO2 SLP161 T00780000
KLVK - Livermore, California, USA
Distance from station: NNE 31mi, 51km
Updated: Tue, 02-Mar-2021 9:53am CST
Clear
Clear
 Wind from calm
Wind: Calm
Temperature: 43°F , 6°C
Dew Point: 30°F , -1°C
Humidity: 61%
Barometer: 29.99 inHg , 1015.6 hPa
Clouds: Clear
Visibility: 10 miles , 16 km
2021/03/02 15:53 KLVK 021553Z 00000KT 10SM CLR 06/M01 A2999 RMK AO2 SLP154 T00561006